sensor_id;sensor_type;location;lat;lon;timestamp;temperature;humidity
64858;SHT30;51335;51.148;6.950;2022-08-19T00:00:10;16.76;91.37
64858;SHT30;51335;51.148;6.950;2022-08-19T00:00:41;16.78;91.40
64858;SHT30;51335;51.148;6.950;2022-08-19T00:01:11;16.78;91.39
64858;SHT30;51335;51.148;6.950;2022-08-19T00:01:44;16.75;91.45
64858;SHT30;51335;51.148;6.950;2022-08-19T00:02:14;16.75;91.41
64858;SHT30;51335;51.148;6.950;2022-08-19T00:02:45;16.72;91.43
64858;SHT30;51335;51.148;6.950;2022-08-19T00:03:16;16.73;91.41
64858;SHT30;51335;51.148;6.950;2022-08-19T00:03:47;16.72;91.45
64858;SHT30;51335;51.148;6.950;2022-08-19T00:04:19;16.69;91.46
64858;SHT30;51335;51.148;6.950;2022-08-19T00:04:49;16.71;91.51
64858;SHT30;51335;51.148;6.950;2022-08-19T00:05:20;16.71;91.50
64858;SHT30;51335;51.148;6.950;2022-08-19T00:05:50;16.68;91.51
64858;SHT30;51335;51.148;6.950;2022-08-19T00:06:21;16.67;91.54
64858;SHT30;51335;51.148;6.950;2022-08-19T00:06:51;16.64;91.56
64858;SHT30;51335;51.148;6.950;2022-08-19T00:07:22;16.68;91.56
64858;SHT30;51335;51.148;6.950;2022-08-19T00:07:52;16.65;91.54
64858;SHT30;51335;51.148;6.950;2022-08-19T00:08:22;16.68;91.54
64858;SHT30;51335;51.148;6.950;2022-08-19T00:08:53;16.67;91.49
64858;SHT30;51335;51.148;6.950;2022-08-19T00:09:24;16.67;91.49
64858;SHT30;51335;51.148;6.950;2022-08-19T00:09:54;16.65;91.53
64858;SHT30;51335;51.148;6.950;2022-08-19T00:10:25;16.64;91.61
64858;SHT30;51335;51.148;6.950;2022-08-19T00:10:55;16.64;91.70
64858;SHT30;51335;51.148;6.950;2022-08-19T00:11:26;16.61;91.70
64858;SHT30;51335;51.148;6.950;2022-08-19T00:11:57;16.64;91.71
64858;SHT30;51335;51.148;6.950;2022-08-19T00:12:27;16.59;91.69
64858;SHT30;51335;51.148;6.950;2022-08-19T00:12:58;16.64;91.68
64858;SHT30;51335;51.148;6.950;2022-08-19T00:13:28;16.67;91.77
64858;SHT30;51335;51.148;6.950;2022-08-19T00:13:58;16.65;91.84
64858;SHT30;51335;51.148;6.950;2022-08-19T00:14:29;16.67;91.83
64858;SHT30;51335;51.148;6.950;2022-08-19T00:15:00;16.69;91.80
64858;SHT30;51335;51.148;6.950;2022-08-19T00:15:30;16.71;91.83
64858;SHT30;51335;51.148;6.950;2022-08-19T00:16:01;16.68;91.84
64858;SHT30;51335;51.148;6.950;2022-08-19T00:16:32;16.69;91.91
64858;SHT30;51335;51.148;6.950;2022-08-19T00:17:04;16.68;92.02
64858;SHT30;51335;51.148;6.950;2022-08-19T00:17:34;16.65;92.01
64858;SHT30;51335;51.148;6.950;2022-08-19T00:18:04;16.65;92.00
64858;SHT30;51335;51.148;6.950;2022-08-19T00:18:35;16.64;92.10
64858;SHT30;51335;51.148;6.950;2022-08-19T00:19:05;16.65;92.18
64858;SHT30;51335;51.148;6.950;2022-08-19T00:19:36;16.64;92.14
64858;SHT30;51335;51.148;6.950;2022-08-19T00:20:09;16.64;92.10
64858;SHT30;51335;51.148;6.950;2022-08-19T00:20:39;16.61;92.14
64858;SHT30;51335;51.148;6.950;2022-08-19T00:21:09;16.61;92.22
64858;SHT30;51335;51.148;6.950;2022-08-19T00:21:39;16.59;92.19
64858;SHT30;51335;51.148;6.950;2022-08-19T00:22:10;16.62;92.27
64858;SHT30;51335;51.148;6.950;2022-08-19T00:22:40;16.62;92.32
64858;SHT30;51335;51.148;6.950;2022-08-19T00:23:10;16.62;92.26
64858;SHT30;51335;51.148;6.950;2022-08-19T00:23:42;16.61;92.28
64858;SHT30;51335;51.148;6.950;2022-08-19T00:24:14;16.59;92.30
64858;SHT30;51335;51.148;6.950;2022-08-19T00:24:44;16.61;92.27
64858;SHT30;51335;51.148;6.950;2022-08-19T00:25:16;16.61;92.32
64858;SHT30;51335;51.148;6.950;2022-08-19T00:25:46;16.64;92.38
64858;SHT30;51335;51.148;6.950;2022-08-19T00:26:16;16.65;92.40
64858;SHT30;51335;51.148;6.950;2022-08-19T00:26:47;16.64;92.27
64858;SHT30;51335;51.148;6.950;2022-08-19T00:27:17;16.64;92.19
64858;SHT30;51335;51.148;6.950;2022-08-19T00:27:47;16.62;92.16
64858;SHT30;51335;51.148;6.950;2022-08-19T00:28:18;16.64;92.21
64858;SHT30;51335;51.148;6.950;2022-08-19T00:28:48;16.62;92.27
64858;SHT30;51335;51.148;6.950;2022-08-19T00:29:20;16.65;92.24
64858;SHT30;51335;51.148;6.950;2022-08-19T00:29:51;16.65;92.23
64858;SHT30;51335;51.148;6.950;2022-08-19T00:30:21;16.65;92.21
64858;SHT30;51335;51.148;6.950;2022-08-19T00:30:51;16.61;92.19
64858;SHT30;51335;51.148;6.950;2022-08-19T00:31:22;16.59;92.26
64858;SHT30;51335;51.148;6.950;2022-08-19T00:31:53;16.59;92.30
64858;SHT30;51335;51.148;6.950;2022-08-19T00:32:24;16.58;92.34
64858;SHT30;51335;51.148;6.950;2022-08-19T00:32:54;16.52;92.37
64858;SHT30;51335;51.148;6.950;2022-08-19T00:33:25;16.51;92.50
64858;SHT30;51335;51.148;6.950;2022-08-19T00:33:55;16.52;92.56
64858;SHT30;51335;51.148;6.950;2022-08-19T00:34:26;16.48;92.64
64858;SHT30;51335;51.148;6.950;2022-08-19T00:34:56;16.45;92.69
64858;SHT30;51335;51.148;6.950;2022-08-19T00:35:27;16.44;92.79
64858;SHT30;51335;51.148;6.950;2022-08-19T00:35:57;16.44;92.80
64858;SHT30;51335;51.148;6.950;2022-08-19T00:36:27;16.41;92.82
64858;SHT30;51335;51.148;6.950;2022-08-19T00:36:58;16.41;92.82
64858;SHT30;51335;51.148;6.950;2022-08-19T00:37:28;16.41;92.83
64858;SHT30;51335;51.148;6.950;2022-08-19T00:37:59;16.38;92.82
64858;SHT30;51335;51.148;6.950;2022-08-19T00:38:29;16.38;92.85
64858;SHT30;51335;51.148;6.950;2022-08-19T00:39:00;16.35;92.89
64858;SHT30;51335;51.148;6.950;2022-08-19T00:39:31;16.38;92.85
64858;SHT30;51335;51.148;6.950;2022-08-19T00:40:05;16.37;92.90
64858;SHT30;51335;51.148;6.950;2022-08-19T00:40:36;16.35;92.91
64858;SHT30;51335;51.148;6.950;2022-08-19T00:41:07;16.35;92.91
64858;SHT30;51335;51.148;6.950;2022-08-19T00:41:39;16.32;92.89
64858;SHT30;51335;51.148;6.950;2022-08-19T00:42:09;16.32;92.88
64858;SHT30;51335;51.148;6.950;2022-08-19T00:42:40;16.31;92.91
64858;SHT30;51335;51.148;6.950;2022-08-19T00:43:11;16.32;92.89
64858;SHT30;51335;51.148;6.950;2022-08-19T00:43:41;16.32;92.93
64858;SHT30;51335;51.148;6.950;2022-08-19T00:44:21;16.32;92.92
64858;SHT30;51335;51.148;6.950;2022-08-19T00:44:51;16.28;92.94
64858;SHT30;51335;51.148;6.950;2022-08-19T00:45:26;16.28;92.94
64858;SHT30;51335;51.148;6.950;2022-08-19T00:45:57;16.27;92.92
64858;SHT30;51335;51.148;6.950;2022-08-19T00:46:28;16.25;92.94
64858;SHT30;51335;51.148;6.950;2022-08-19T00:46:58;16.25;92.96
64858;SHT30;51335;51.148;6.950;2022-08-19T00:47:29;16.22;92.98
64858;SHT30;51335;51.148;6.950;2022-08-19T00:47:59;16.22;92.96
64858;SHT30;51335;51.148;6.950;2022-08-19T00:48:31;16.21;92.95
64858;SHT30;51335;51.148;6.950;2022-08-19T00:49:06;16.18;92.87
64858;SHT30;51335;51.148;6.950;2022-08-19T00:49:51;16.18;92.89
64858;SHT30;51335;51.148;6.950;2022-08-19T00:50:22;16.16;92.98
64858;SHT30;51335;51.148;6.950;2022-08-19T00:50:53;16.16;93.01
64858;SHT30;51335;51.148;6.950;2022-08-19T00:51:26;16.18;93.04
64858;SHT30;51335;51.148;6.950;2022-08-19T00:52:02;16.17;93.05
64858;SHT30;51335;51.148;6.950;2022-08-19T00:52:37;16.16;93.06
64858;SHT30;51335;51.148;6.950;2022-08-19T00:53:10;16.14;93.02
64858;SHT30;51335;51.148;6.950;2022-08-19T00:53:41;16.11;93.03
64858;SHT30;51335;51.148;6.950;2022-08-19T00:54:12;16.14;92.99
64858;SHT30;51335;51.148;6.950;2022-08-19T00:54:44;16.11;92.95
64858;SHT30;51335;51.148;6.950;2022-08-19T00:55:21;16.11;92.95
64858;SHT30;51335;51.148;6.950;2022-08-19T00:55:53;16.10;92.93
64858;SHT30;51335;51.148;6.950;2022-08-19T00:56:25;16.13;92.88
64858;SHT30;51335;51.148;6.950;2022-08-19T00:56:55;16.11;92.82
64858;SHT30;51335;51.148;6.950;2022-08-19T00:57:36;16.13;92.80
64858;SHT30;51335;51.148;6.950;2022-08-19T00:58:12;16.17;92.77
64858;SHT30;51335;51.148;6.950;2022-08-19T00:58:43;16.14;92.75
64858;SHT30;51335;51.148;6.950;2022-08-19T00:59:15;16.14;92.83
64858;SHT30;51335;51.148;6.950;2022-08-19T00:59:47;16.13;92.92
64858;SHT30;51335;51.148;6.950;2022-08-19T01:00:23;16.14;93.08
64858;SHT30;51335;51.148;6.950;2022-08-19T01:00:54;16.14;93.13
64858;SHT30;51335;51.148;6.950;2022-08-19T01:01:25;16.11;93.27
64858;SHT30;51335;51.148;6.950;2022-08-19T01:01:56;16.11;93.33
64858;SHT30;51335;51.148;6.950;2022-08-19T01:02:26;16.10;93.34
64858;SHT30;51335;51.148;6.950;2022-08-19T01:02:57;16.11;93.27
64858;SHT30;51335;51.148;6.950;2022-08-19T01:03:28;16.10;93.28
64858;SHT30;51335;51.148;6.950;2022-08-19T01:03:58;16.07;93.30
64858;SHT30;51335;51.148;6.950;2022-08-19T01:04:28;16.07;93.34
64858;SHT30;51335;51.148;6.950;2022-08-19T01:05:01;16.06;93.43
64858;SHT30;51335;51.148;6.950;2022-08-19T01:05:32;16.09;93.50
64858;SHT30;51335;51.148;6.950;2022-08-19T01:06:02;16.09;93.46
64858;SHT30;51335;51.148;6.950;2022-08-19T01:06:35;16.06;93.50
64858;SHT30;51335;51.148;6.950;2022-08-19T01:07:05;16.06;93.58
64858;SHT30;51335;51.148;6.950;2022-08-19T01:07:38;16.06;93.67
64858;SHT30;51335;51.148;6.950;2022-08-19T01:08:10;16.06;93.67
64858;SHT30;51335;51.148;6.950;2022-08-19T01:08:40;16.07;93.70
64858;SHT30;51335;51.148;6.950;2022-08-19T01:09:10;16.06;93.78
64858;SHT30;51335;51.148;6.950;2022-08-19T01:09:41;16.10;93.77
64858;SHT30;51335;51.148;6.950;2022-08-19T01:10:15;16.07;93.77
64858;SHT30;51335;51.148;6.950;2022-08-19T01:10:51;16.07;93.84
64858;SHT30;51335;51.148;6.950;2022-08-19T01:11:22;16.06;93.85
64858;SHT30;51335;51.148;6.950;2022-08-19T01:11:52;16.06;93.85
64858;SHT30;51335;51.148;6.950;2022-08-19T01:12:23;16.06;93.82
64858;SHT30;51335;51.148;6.950;2022-08-19T01:12:54;16.04;93.91
64858;SHT30;51335;51.148;6.950;2022-08-19T01:13:30;16.03;93.85
64858;SHT30;51335;51.148;6.950;2022-08-19T01:14:02;16.04;93.94
64858;SHT30;51335;51.148;6.950;2022-08-19T01:14:33;16.01;93.96
64858;SHT30;51335;51.148;6.950;2022-08-19T01:15:06;16.01;94.04
64858;SHT30;51335;51.148;6.950;2022-08-19T01:15:44;16.01;94.12
64858;SHT30;51335;51.148;6.950;2022-08-19T01:16:16;16.00;94.12
64858;SHT30;51335;51.148;6.950;2022-08-19T01:16:47;16.03;94.11
64858;SHT30;51335;51.148;6.950;2022-08-19T01:17:18;16.06;94.08
64858;SHT30;51335;51.148;6.950;2022-08-19T01:17:49;16.04;93.98
64858;SHT30;51335;51.148;6.950;2022-08-19T01:18:21;16.04;93.94
64858;SHT30;51335;51.148;6.950;2022-08-19T01:18:51;16.06;93.93
64858;SHT30;51335;51.148;6.950;2022-08-19T01:19:27;16.04;93.98
64858;SHT30;51335;51.148;6.950;2022-08-19T01:19:58;16.03;93.99
64858;SHT30;51335;51.148;6.950;2022-08-19T01:20:29;15.99;93.96
64858;SHT30;51335;51.148;6.950;2022-08-19T01:21:05;15.99;94.00
64858;SHT30;51335;51.148;6.950;2022-08-19T01:21:52;15.99;94.13
64858;SHT30;51335;51.148;6.950;2022-08-19T01:22:47;15.99;94.13
64858;SHT30;51335;51.148;6.950;2022-08-19T01:23:18;15.97;94.16
64858;SHT30;51335;51.148;6.950;2022-08-19T01:23:48;16.00;94.30
64858;SHT30;51335;51.148;6.950;2022-08-19T01:24:18;16.00;94.24
64858;SHT30;51335;51.148;6.950;2022-08-19T01:24:49;16.06;94.33
64858;SHT30;51335;51.148;6.950;2022-08-19T01:25:31;16.06;94.34
64858;SHT30;51335;51.148;6.950;2022-08-19T01:26:02;16.03;94.33
64858;SHT30;51335;51.148;6.950;2022-08-19T01:26:41;16.07;94.36
64858;SHT30;51335;51.148;6.950;2022-08-19T01:27:12;16.04;94.34
64858;SHT30;51335;51.148;6.950;2022-08-19T01:27:46;16.03;94.33
64858;SHT30;51335;51.148;6.950;2022-08-19T01:28:23;16.00;94.32
64858;SHT30;51335;51.148;6.950;2022-08-19T01:28:55;15.99;94.33
64858;SHT30;51335;51.148;6.950;2022-08-19T01:29:26;15.94;94.41
64858;SHT30;51335;51.148;6.950;2022-08-19T01:29:56;15.94;94.44
64858;SHT30;51335;51.148;6.950;2022-08-19T01:30:33;15.93;94.47
64858;SHT30;51335;51.148;6.950;2022-08-19T01:31:05;15.89;94.38
64858;SHT30;51335;51.148;6.950;2022-08-19T01:31:35;15.89;94.48
64858;SHT30;51335;51.148;6.950;2022-08-19T01:32:07;15.89;94.45
64858;SHT30;51335;51.148;6.950;2022-08-19T01:32:39;15.89;94.48
64858;SHT30;51335;51.148;6.950;2022-08-19T01:33:09;15.89;94.47
64858;SHT30;51335;51.148;6.950;2022-08-19T01:33:39;15.91;94.49
64858;SHT30;51335;51.148;6.950;2022-08-19T01:34:10;15.91;94.48
64858;SHT30;51335;51.148;6.950;2022-08-19T01:34:40;15.93;94.41
64858;SHT30;51335;51.148;6.950;2022-08-19T01:35:12;15.91;94.42
64858;SHT30;51335;51.148;6.950;2022-08-19T01:35:42;15.94;94.43
64858;SHT30;51335;51.148;6.950;2022-08-19T01:36:32;15.94;94.37
64858;SHT30;51335;51.148;6.950;2022-08-19T01:37:07;15.97;94.28
64858;SHT30;51335;51.148;6.950;2022-08-19T01:37:43;15.94;94.21
64858;SHT30;51335;51.148;6.950;2022-08-19T01:38:23;15.97;94.18
64858;SHT30;51335;51.148;6.950;2022-08-19T01:38:54;15.96;94.23
64858;SHT30;51335;51.148;6.950;2022-08-19T01:39:26;15.99;94.28
64858;SHT30;51335;51.148;6.950;2022-08-19T01:39:56;16.04;94.22
64858;SHT30;51335;51.148;6.950;2022-08-19T01:40:30;16.07;94.21
64858;SHT30;51335;51.148;6.950;2022-08-19T01:41:00;16.06;94.20
64858;SHT30;51335;51.148;6.950;2022-08-19T01:41:31;16.11;94.22
64858;SHT30;51335;51.148;6.950;2022-08-19T01:42:01;16.13;94.15
64858;SHT30;51335;51.148;6.950;2022-08-19T01:42:31;16.17;94.06
64858;SHT30;51335;51.148;6.950;2022-08-19T01:43:02;16.22;94.03
64858;SHT30;51335;51.148;6.950;2022-08-19T01:43:33;16.25;93.99
64858;SHT30;51335;51.148;6.950;2022-08-19T01:44:05;16.31;93.85
64858;SHT30;51335;51.148;6.950;2022-08-19T01:44:38;16.32;93.69
64858;SHT30;51335;51.148;6.950;2022-08-19T01:45:08;16.28;93.67
64858;SHT30;51335;51.148;6.950;2022-08-19T01:45:39;16.30;93.68
64858;SHT30;51335;51.148;6.950;2022-08-19T01:46:09;16.32;93.56
64858;SHT30;51335;51.148;6.950;2022-08-19T01:46:41;16.34;93.49
64858;SHT30;51335;51.148;6.950;2022-08-19T01:47:12;16.37;93.43
64858;SHT30;51335;51.148;6.950;2022-08-19T01:47:42;16.27;93.51
64858;SHT30;51335;51.148;6.950;2022-08-19T01:48:13;16.24;93.63
64858;SHT30;51335;51.148;6.950;2022-08-19T01:48:45;16.20;93.78
64858;SHT30;51335;51.148;6.950;2022-08-19T01:49:19;16.17;93.87
64858;SHT30;51335;51.148;6.950;2022-08-19T01:49:49;16.14;93.97
64858;SHT30;51335;51.148;6.950;2022-08-19T01:50:20;16.16;94.08
64858;SHT30;51335;51.148;6.950;2022-08-19T01:50:50;16.11;94.09
64858;SHT30;51335;51.148;6.950;2022-08-19T01:51:20;16.14;94.18
64858;SHT30;51335;51.148;6.950;2022-08-19T01:51:51;16.06;94.26
64858;SHT30;51335;51.148;6.950;2022-08-19T01:52:22;16.07;94.25
64858;SHT30;51335;51.148;6.950;2022-08-19T01:52:52;16.01;94.39
64858;SHT30;51335;51.148;6.950;2022-08-19T01:53:23;16.00;94.42
64858;SHT30;51335;51.148;6.950;2022-08-19T01:53:53;15.96;94.42
64858;SHT30;51335;51.148;6.950;2022-08-19T01:54:24;15.91;94.56
64858;SHT30;51335;51.148;6.950;2022-08-19T01:54:55;15.91;94.58
64858;SHT30;51335;51.148;6.950;2022-08-19T01:55:25;15.96;94.66
64858;SHT30;51335;51.148;6.950;2022-08-19T01:55:56;15.93;94.62
64858;SHT30;51335;51.148;6.950;2022-08-19T01:56:26;15.90;94.54
64858;SHT30;51335;51.148;6.950;2022-08-19T01:57:01;15.85;94.54
64858;SHT30;51335;51.148;6.950;2022-08-19T01:57:33;15.80;94.71
64858;SHT30;51335;51.148;6.950;2022-08-19T01:58:05;15.82;94.75
64858;SHT30;51335;51.148;6.950;2022-08-19T01:58:38;15.85;94.86
64858;SHT30;51335;51.148;6.950;2022-08-19T01:59:14;15.87;94.95
64858;SHT30;51335;51.148;6.950;2022-08-19T01:59:46;15.89;94.88
64858;SHT30;51335;51.148;6.950;2022-08-19T02:00:19;15.89;94.88
64858;SHT30;51335;51.148;6.950;2022-08-19T02:00:50;15.89;94.90
64858;SHT30;51335;51.148;6.950;2022-08-19T02:01:20;15.93;94.89
64858;SHT30;51335;51.148;6.950;2022-08-19T02:01:50;15.91;94.86
64858;SHT30;51335;51.148;6.950;2022-08-19T02:02:21;15.90;94.86
64858;SHT30;51335;51.148;6.950;2022-08-19T02:02:51;15.89;94.88
64858;SHT30;51335;51.148;6.950;2022-08-19T02:03:21;15.87;94.92
64858;SHT30;51335;51.148;6.950;2022-08-19T02:03:52;15.87;94.99
64858;SHT30;51335;51.148;6.950;2022-08-19T02:04:22;15.83;95.04
64858;SHT30;51335;51.148;6.950;2022-08-19T02:04:52;15.82;95.12
64858;SHT30;51335;51.148;6.950;2022-08-19T02:05:23;15.83;95.08
64858;SHT30;51335;51.148;6.950;2022-08-19T02:05:56;15.86;95.14
64858;SHT30;51335;51.148;6.950;2022-08-19T02:06:27;15.83;95.12
64858;SHT30;51335;51.148;6.950;2022-08-19T02:06:58;15.85;95.21
64858;SHT30;51335;51.148;6.950;2022-08-19T02:07:28;15.85;95.19
64858;SHT30;51335;51.148;6.950;2022-08-19T02:07:58;15.79;95.23
64858;SHT30;51335;51.148;6.950;2022-08-19T02:08:30;15.86;95.31
64858;SHT30;51335;51.148;6.950;2022-08-19T02:09:02;15.87;95.25
64858;SHT30;51335;51.148;6.950;2022-08-19T02:09:33;15.85;95.28
64858;SHT30;51335;51.148;6.950;2022-08-19T02:10:07;15.85;95.35
64858;SHT30;51335;51.148;6.950;2022-08-19T02:10:41;15.86;95.34
64858;SHT30;51335;51.148;6.950;2022-08-19T02:11:23;15.86;95.29
64858;SHT30;51335;51.148;6.950;2022-08-19T02:11:53;15.89;95.28
64858;SHT30;51335;51.148;6.950;2022-08-19T02:12:24;15.87;95.23
64858;SHT30;51335;51.148;6.950;2022-08-19T02:12:54;15.91;95.18
64858;SHT30;51335;51.148;6.950;2022-08-19T02:13:25;15.94;95.21
64858;SHT30;51335;51.148;6.950;2022-08-19T02:13:56;16.03;94.97
64858;SHT30;51335;51.148;6.950;2022-08-19T02:14:26;16.00;94.89
64858;SHT30;51335;51.148;6.950;2022-08-19T02:14:58;16.04;94.88
64858;SHT30;51335;51.148;6.950;2022-08-19T02:15:29;16.01;94.74
64858;SHT30;51335;51.148;6.950;2022-08-19T02:15:59;15.96;94.79
64858;SHT30;51335;51.148;6.950;2022-08-19T02:16:30;15.91;94.83
64858;SHT30;51335;51.148;6.950;2022-08-19T02:17:00;15.87;94.90
64858;SHT30;51335;51.148;6.950;2022-08-19T02:17:31;15.85;95.01
64858;SHT30;51335;51.148;6.950;2022-08-19T02:18:01;15.83;95.13
64858;SHT30;51335;51.148;6.950;2022-08-19T02:18:31;15.82;95.19
64858;SHT30;51335;51.148;6.950;2022-08-19T02:19:02;15.74;95.17
64858;SHT30;51335;51.148;6.950;2022-08-19T02:19:33;15.72;95.30
64858;SHT30;51335;51.148;6.950;2022-08-19T02:20:04;15.70;95.34
64858;SHT30;51335;51.148;6.950;2022-08-19T02:20:35;15.69;95.42
64858;SHT30;51335;51.148;6.950;2022-08-19T02:21:06;15.67;95.48
64858;SHT30;51335;51.148;6.950;2022-08-19T02:21:36;15.65;95.48
64858;SHT30;51335;51.148;6.950;2022-08-19T02:22:06;15.65;95.51
64858;SHT30;51335;51.148;6.950;2022-08-19T02:22:37;15.62;95.53
64858;SHT30;51335;51.148;6.950;2022-08-19T02:23:07;15.59;95.45
64858;SHT30;51335;51.148;6.950;2022-08-19T02:23:38;15.59;95.46
64858;SHT30;51335;51.148;6.950;2022-08-19T02:24:08;15.56;95.51
64858;SHT30;51335;51.148;6.950;2022-08-19T02:24:38;15.56;95.56
64858;SHT30;51335;51.148;6.950;2022-08-19T02:25:11;15.53;95.58
64858;SHT30;51335;51.148;6.950;2022-08-19T02:25:44;15.53;95.59
64858;SHT30;51335;51.148;6.950;2022-08-19T02:26:15;15.53;95.58
64858;SHT30;51335;51.148;6.950;2022-08-19T02:26:45;15.52;95.54
64858;SHT30;51335;51.148;6.950;2022-08-19T02:27:15;15.51;95.55
64858;SHT30;51335;51.148;6.950;2022-08-19T02:27:45;15.49;95.58
64858;SHT30;51335;51.148;6.950;2022-08-19T02:28:16;15.49;95.56
64858;SHT30;51335;51.148;6.950;2022-08-19T02:28:46;15.46;95.56
64858;SHT30;51335;51.148;6.950;2022-08-19T02:29:17;15.45;95.54
64858;SHT30;51335;51.148;6.950;2022-08-19T02:29:48;15.46;95.54
64858;SHT30;51335;51.148;6.950;2022-08-19T02:30:19;15.43;95.55
64858;SHT30;51335;51.148;6.950;2022-08-19T02:30:50;15.43;95.57
64858;SHT30;51335;51.148;6.950;2022-08-19T02:31:22;15.43;95.59
64858;SHT30;51335;51.148;6.950;2022-08-19T02:31:53;15.41;95.58
64858;SHT30;51335;51.148;6.950;2022-08-19T02:32:23;15.42;95.52
64858;SHT30;51335;51.148;6.950;2022-08-19T02:32:53;15.42;95.48
64858;SHT30;51335;51.148;6.950;2022-08-19T02:33:23;15.41;95.41
64858;SHT30;51335;51.148;6.950;2022-08-19T02:33:55;15.41;95.28
64858;SHT30;51335;51.148;6.950;2022-08-19T02:34:26;15.41;95.17
64858;SHT30;51335;51.148;6.950;2022-08-19T02:34:56;15.41;95.12
64858;SHT30;51335;51.148;6.950;2022-08-19T02:35:26;15.39;95.05
64858;SHT30;51335;51.148;6.950;2022-08-19T02:35:57;15.39;94.99
64858;SHT30;51335;51.148;6.950;2022-08-19T02:36:27;15.35;94.92
64858;SHT30;51335;51.148;6.950;2022-08-19T02:36:57;15.34;94.95
64858;SHT30;51335;51.148;6.950;2022-08-19T02:37:28;15.35;94.88
64858;SHT30;51335;51.148;6.950;2022-08-19T02:37:58;15.31;94.86
64858;SHT30;51335;51.148;6.950;2022-08-19T02:38:28;15.34;94.87
64858;SHT30;51335;51.148;6.950;2022-08-19T02:38:59;15.32;94.82
64858;SHT30;51335;51.148;6.950;2022-08-19T02:39:29;15.31;94.82
64858;SHT30;51335;51.148;6.950;2022-08-19T02:40:00;15.28;94.86
64858;SHT30;51335;51.148;6.950;2022-08-19T02:40:31;15.27;94.86
64858;SHT30;51335;51.148;6.950;2022-08-19T02:41:05;15.28;94.86
64858;SHT30;51335;51.148;6.950;2022-08-19T02:41:36;15.30;94.78
64858;SHT30;51335;51.148;6.950;2022-08-19T02:42:06;15.25;94.74
64858;SHT30;51335;51.148;6.950;2022-08-19T02:42:37;15.25;94.75
64858;SHT30;51335;51.148;6.950;2022-08-19T02:43:08;15.21;94.74
64858;SHT30;51335;51.148;6.950;2022-08-19T02:43:38;15.22;94.75
64858;SHT30;51335;51.148;6.950;2022-08-19T02:44:09;15.21;94.75
64858;SHT30;51335;51.148;6.950;2022-08-19T02:44:39;15.20;94.77
64858;SHT30;51335;51.148;6.950;2022-08-19T02:45:09;15.18;94.74
64858;SHT30;51335;51.148;6.950;2022-08-19T02:45:40;15.20;94.78
64858;SHT30;51335;51.148;6.950;2022-08-19T02:46:46;15.17;94.84
64858;SHT30;51335;51.148;6.950;2022-08-19T02:47:17;15.18;94.91
64858;SHT30;51335;51.148;6.950;2022-08-19T02:47:48;15.17;94.99
64858;SHT30;51335;51.148;6.950;2022-08-19T02:48:20;15.21;95.06
64858;SHT30;51335;51.148;6.950;2022-08-19T02:48:53;15.21;95.07
64858;SHT30;51335;51.148;6.950;2022-08-19T02:49:23;15.21;95.09
64858;SHT30;51335;51.148;6.950;2022-08-19T02:49:53;15.22;95.11
64858;SHT30;51335;51.148;6.950;2022-08-19T02:50:24;15.21;95.15
64858;SHT30;51335;51.148;6.950;2022-08-19T02:50:54;15.21;95.18
64858;SHT30;51335;51.148;6.950;2022-08-19T02:51:28;15.20;95.18
64858;SHT30;51335;51.148;6.950;2022-08-19T02:51:58;15.21;95.20
64858;SHT30;51335;51.148;6.950;2022-08-19T02:52:29;15.20;95.20
64858;SHT30;51335;51.148;6.950;2022-08-19T02:53:01;15.20;95.26
64858;SHT30;51335;51.148;6.950;2022-08-19T02:53:31;15.18;95.29
64858;SHT30;51335;51.148;6.950;2022-08-19T02:54:03;15.20;95.40
64858;SHT30;51335;51.148;6.950;2022-08-19T02:54:34;15.20;95.47
64858;SHT30;51335;51.148;6.950;2022-08-19T02:55:04;15.21;95.55
64858;SHT30;51335;51.148;6.950;2022-08-19T02:55:35;15.21;95.59
64858;SHT30;51335;51.148;6.950;2022-08-19T02:56:07;15.21;95.74
64858;SHT30;51335;51.148;6.950;2022-08-19T02:56:38;15.24;95.89
64858;SHT30;51335;51.148;6.950;2022-08-19T02:57:09;15.24;95.86
64858;SHT30;51335;51.148;6.950;2022-08-19T02:57:40;15.24;96.08
64858;SHT30;51335;51.148;6.950;2022-08-19T02:58:10;15.24;96.22
64858;SHT30;51335;51.148;6.950;2022-08-19T02:58:40;15.27;96.07
64858;SHT30;51335;51.148;6.950;2022-08-19T02:59:11;15.25;96.08
64858;SHT30;51335;51.148;6.950;2022-08-19T02:59:41;15.28;96.06
64858;SHT30;51335;51.148;6.950;2022-08-19T03:00:12;15.25;96.06
64858;SHT30;51335;51.148;6.950;2022-08-19T03:00:45;15.27;95.99
64858;SHT30;51335;51.148;6.950;2022-08-19T03:01:30;15.30;95.98
64858;SHT30;51335;51.148;6.950;2022-08-19T03:02:01;15.30;95.86
64858;SHT30;51335;51.148;6.950;2022-08-19T03:02:31;15.31;95.81
64858;SHT30;51335;51.148;6.950;2022-08-19T03:03:01;15.28;95.76
64858;SHT30;51335;51.148;6.950;2022-08-19T03:03:32;15.27;95.69
64858;SHT30;51335;51.148;6.950;2022-08-19T03:04:04;15.30;95.62
64858;SHT30;51335;51.148;6.950;2022-08-19T03:04:35;15.31;95.56
64858;SHT30;51335;51.148;6.950;2022-08-19T03:05:07;15.31;95.49
64858;SHT30;51335;51.148;6.950;2022-08-19T03:05:39;15.31;95.42
64858;SHT30;51335;51.148;6.950;2022-08-19T03:06:14;15.32;95.27
64858;SHT30;51335;51.148;6.950;2022-08-19T03:06:46;15.30;95.14
64858;SHT30;51335;51.148;6.950;2022-08-19T03:07:17;15.31;95.04
64858;SHT30;51335;51.148;6.950;2022-08-19T03:07:47;15.32;95.00
64858;SHT30;51335;51.148;6.950;2022-08-19T03:08:18;15.32;94.90
64858;SHT30;51335;51.148;6.950;2022-08-19T03:08:49;15.32;94.88
64858;SHT30;51335;51.148;6.950;2022-08-19T03:09:19;15.34;94.87
64858;SHT30;51335;51.148;6.950;2022-08-19T03:09:50;15.32;94.85
64858;SHT30;51335;51.148;6.950;2022-08-19T03:10:20;15.32;94.94
64858;SHT30;51335;51.148;6.950;2022-08-19T03:10:50;15.31;94.91
64858;SHT30;51335;51.148;6.950;2022-08-19T03:11:32;15.31;94.97
64858;SHT30;51335;51.148;6.950;2022-08-19T03:12:05;15.28;95.00
64858;SHT30;51335;51.148;6.950;2022-08-19T03:12:38;15.30;94.95
64858;SHT30;51335;51.148;6.950;2022-08-19T03:13:08;15.30;95.00
64858;SHT30;51335;51.148;6.950;2022-08-19T03:13:38;15.24;94.98
64858;SHT30;51335;51.148;6.950;2022-08-19T03:14:10;15.28;95.04
64858;SHT30;51335;51.148;6.950;2022-08-19T03:14:40;15.24;95.06
64858;SHT30;51335;51.148;6.950;2022-08-19T03:15:10;15.25;95.05
64858;SHT30;51335;51.148;6.950;2022-08-19T03:15:43;15.25;95.03
64858;SHT30;51335;51.148;6.950;2022-08-19T03:16:15;15.25;95.04
64858;SHT30;51335;51.148;6.950;2022-08-19T03:16:49;15.27;95.09
64858;SHT30;51335;51.148;6.950;2022-08-19T03:17:20;15.22;95.08
64858;SHT30;51335;51.148;6.950;2022-08-19T03:17:50;15.25;95.08
64858;SHT30;51335;51.148;6.950;2022-08-19T03:18:21;15.22;95.09
64858;SHT30;51335;51.148;6.950;2022-08-19T03:18:52;15.25;95.11
64858;SHT30;51335;51.148;6.950;2022-08-19T03:19:23;15.27;95.19
64858;SHT30;51335;51.148;6.950;2022-08-19T03:19:53;15.30;95.28